.
WxDataArchive / Data Records for 2011-09-03
2011-09-02 September 2011 2011-09-04

Data Records for Saturday, 03 September 2011

Time	Temp	Chill	HIndex	Humid	Dewpt	 Wind 	HiWind	WindDir	Rain 	Barom 
-----	----	-----	------	-----	-----	------	------	-------	-----	----- 
00:00	82.8	82.8	85.0	57	66.0	0	1	270	0.00	29.882 
00:05	82.8	82.8	85.0	57	66.0	0	1	270	0.00	29.882 
00:10	82.6	82.6	84.7	57	65.8	0	0	---	0.00	29.882 
00:15	82.4	82.4	84.4	57	65.6	0	0	---	0.00	29.883 
00:20	82.0	82.0	83.9	57	65.2	0	0	---	0.00	29.883 
00:25	81.8	81.8	83.6	57	65.0	0	0	---	0.00	29.883 
00:30	81.6	81.6	83.5	58	65.4	0	0	---	0.00	29.882 
00:35	81.2	81.2	83.0	58	65.0	0	0	---	0.00	29.882 
00:40	81.1	81.1	82.8	57	64.4	0	0	---	0.00	29.882 
00:45	80.9	80.9	82.7	58	64.7	0	0	---	0.00	29.885 
00:50	80.7	80.7	82.4	58	64.5	0	0	---	0.00	29.885 
00:55	80.3	80.3	81.9	58	64.2	0	0	---	0.00	29.885 
01:00	80.1	80.1	81.8	59	64.5	0	0	---	0.00	29.882 
01:05	79.8	79.8	81.5	59	64.2	0	0	---	0.00	29.882 
01:10	79.6	79.6	81.3	60	64.5	0	0	---	0.00	29.882 
01:15	79.2	79.2	81.0	61	64.6	0	0	---	0.00	29.883 
01:20	78.8	78.8	80.6	62	64.7	0	0	---	0.00	29.883 
01:25	78.6	78.6	80.4	62	64.5	0	0	---	0.00	29.883 
01:30	78.3	78.3	80.1	63	64.6	0	0	---	0.00	29.886 
01:35	77.9	77.9	79.7	63	64.3	0	0	---	0.00	29.886 
01:40	78.1	78.1	79.9	63	64.5	0	1	270	0.00	29.886 
01:45	78.5	78.5	80.3	62	64.4	0	1	270	0.00	29.897 
01:50	78.5	78.5	80.3	62	64.4	0	0	---	0.00	29.897 
01:55	78.3	78.3	80.1	62	64.2	0	0	---	0.00	29.897 
02:00	77.9	77.9	79.7	63	64.3	0	0	---	0.00	29.898 
02:05	77.4	77.4	79.2	64	64.2	0	0	---	0.00	29.898 
02:10	77.0	77.0	78.8	65	64.3	0	0	---	0.00	29.898 
02:15	76.7	76.7	78.5	65	64.0	0	0	---	0.00	29.895 
02:20	76.1	76.1	77.9	67	64.3	0	0	---	0.00	29.895 
02:25	75.6	75.6	77.4	68	64.3	0	0	---	0.00	29.895 
02:30	75.3	75.3	77.0	69	64.4	0	0	---	0.00	29.892 
02:35	74.9	74.9	74.9	69	64.0	0	0	---	0.00	29.892 
02:40	74.6	74.6	74.6	70	64.2	0	0	---	0.00	29.892 
02:45	74.4	74.4	74.4	71	64.4	0	0	---	0.00	29.891 
02:50	74.2	74.2	74.2	71	64.2	0	0	---	0.00	29.891 
02:55	74.0	74.0	74.0	72	64.4	0	0	---	0.00	29.891 
03:00	73.9	73.9	73.9	72	64.3	0	0	---	0.00	29.892 
03:05	73.9	73.9	73.9	73	64.7	0	0	---	0.00	29.892 
03:10	73.7	73.7	73.7	73	64.5	0	0	---	0.00	29.892 
03:15	73.7	73.7	73.7	73	64.5	0	0	---	0.00	29.891 
03:20	73.5	73.5	73.5	73	64.3	0	0	---	0.00	29.891 
03:25	73.3	73.3	73.3	74	64.5	0	0	---	0.00	29.891 
03:30	73.2	73.2	73.2	74	64.4	0	0	---	0.00	29.894 
03:35	73.0	73.0	73.0	75	64.6	0	0	---	0.00	29.894 
03:40	72.8	72.8	72.8	75	64.4	0	0	---	0.00	29.894 
03:45	72.7	72.7	72.7	75	64.3	0	0	---	0.00	29.898 
03:50	72.5	72.5	72.5	76	64.5	0	0	---	0.00	29.898 
03:55	72.5	72.5	72.5	76	64.5	0	0	---	0.00	29.898 
04:00	72.3	72.3	72.3	77	64.7	0	0	---	0.00	29.900 
04:05	72.3	72.3	72.3	77	64.7	0	0	---	0.00	29.900 
04:10	72.3	72.3	72.3	77	64.7	0	0	---	0.00	29.900 
04:15	72.3	72.3	72.3	77	64.7	0	0	---	0.00	29.899 
04:20	72.1	72.1	72.1	77	64.5	0	0	---	0.00	29.899 
04:25	72.1	72.1	72.1	77	64.5	0	0	---	0.00	29.899 
04:30	72.0	72.0	72.0	77	64.4	0	0	---	0.00	29.901 
04:35	72.0	72.0	72.0	77	64.4	0	0	---	0.00	29.901 
04:40	72.0	72.0	72.0	77	64.4	0	0	---	0.00	29.901 
04:45	72.0	72.0	72.0	78	64.8	0	0	---	0.00	29.899 
04:50	72.0	72.0	72.0	78	64.8	0	0	---	0.00	29.899 
04:55	71.8	71.8	71.8	78	64.6	0	0	---	0.00	29.899 
05:00	71.6	71.6	71.6	78	64.4	0	0	---	0.00	29.898 
05:05	71.5	71.5	71.5	78	64.3	0	0	---	0.00	29.898 
05:10	71.1	71.1	71.1	79	64.2	0	0	---	0.00	29.898 
05:15	70.9	70.9	70.9	79	64.1	0	0	---	0.00	29.899 
05:20	70.6	70.6	70.6	80	64.1	0	0	---	0.00	29.899 
05:25	70.4	70.4	70.4	81	64.3	0	0	---	0.00	29.899 
05:30	70.3	70.3	70.3	81	64.2	0	0	---	0.00	29.900 
05:35	70.1	70.1	70.1	82	64.3	0	0	---	0.00	29.900 
05:40	70.1	70.1	70.1	83	64.7	0	0	---	0.00	29.900 
05:45	69.9	69.9	69.9	83	64.5	0	0	---	0.00	29.900 
05:50	69.9	69.9	69.9	83	64.5	0	0	---	0.00	29.900 
05:55	69.9	69.9	69.9	83	64.5	0	0	---	0.00	29.900 
06:00	69.8	69.8	69.8	83	64.4	0	0	---	0.00	29.900 
06:05	69.8	69.8	69.8	83	64.4	0	0	---	0.00	29.900 
06:10	69.6	69.6	69.6	83	64.2	0	0	---	0.00	29.900 
06:15	69.6	69.6	69.6	83	64.2	0	0	---	0.00	29.903 
06:20	69.4	69.4	69.4	84	64.3	0	0	---	0.00	29.903 
06:25	69.4	69.4	69.4	84	64.3	0	0	---	0.00	29.903 
06:30	69.4	69.4	69.4	84	64.3	0	0	---	0.00	29.906 
06:35	69.4	69.4	69.4	84	64.3	0	0	---	0.00	29.906 
06:40	69.3	69.3	69.3	84	64.2	0	0	---	0.00	29.906 
06:45	69.1	69.1	69.1	85	64.4	0	0	---	0.00	29.905 
06:50	69.1	69.1	69.1	85	64.4	0	0	---	0.00	29.905 
06:55	69.1	69.1	69.1	85	64.4	0	0	---	0.00	29.905 
07:00	69.1	69.1	69.1	85	64.4	0	0	---	0.00	29.905 
07:05	69.1	69.1	69.1	85	64.4	0	0	---	0.00	29.905 
07:10	69.1	69.1	69.1	85	64.4	0	0	---	0.00	29.905 
07:15	68.9	68.9	68.9	85	64.2	0	0	---	0.00	29.909 
07:20	68.9	68.9	68.9	85	64.2	0	0	---	0.00	29.909 
07:25	68.9	68.9	68.9	86	64.5	0	0	---	0.00	29.909 
07:30	68.9	68.9	68.9	86	64.5	0	0	---	0.00	29.908 
07:35	68.9	68.9	68.9	86	64.5	0	0	---	0.00	29.908 
07:40	69.1	69.1	69.1	86	64.7	0	0	---	0.00	29.908 
07:45	69.1	69.1	69.1	86	64.7	0	0	---	0.00	29.908 
07:50	69.3	69.3	69.3	86	64.9	0	0	---	0.00	29.908 
07:55	69.4	69.4	69.4	86	65.0	0	0	---	0.00	29.908 
08:00	69.8	69.8	69.8	86	65.4	0	0	---	0.00	29.910 
08:05	70.3	70.3	70.3	84	65.2	0	0	---	0.00	29.910 
08:10	70.9	70.9	70.9	84	65.8	0	0	---	0.00	29.910 
08:15	71.6	71.6	71.6	82	65.8	0	0	---	0.00	29.910 
08:20	72.3	72.3	72.3	81	66.1	0	0	---	0.00	29.910 
08:25	73.0	73.0	73.0	81	66.8	0	0	---	0.00	29.910 
08:30	73.7	73.7	73.7	79	66.8	0	0	---	0.00	29.907 
08:35	74.2	74.2	74.2	78	66.9	0	0	---	0.00	29.907 
08:40	74.7	74.7	74.7	76	66.6	0	0	---	0.00	29.907 
08:45	75.4	75.4	76.7	74	66.5	0	1	270	0.00	29.908 
08:50	76.1	76.1	77.7	72	66.4	0	1	270	0.00	29.908 
08:55	76.8	76.8	78.5	70	66.3	0	1	270	0.00	29.908 
09:00	77.6	77.6	79.5	68	66.2	0	1	270	0.00	29.905 
09:05	78.1	78.1	80.1	68	66.7	0	1	270	0.00	29.905 
09:10	78.5	78.5	80.5	66	66.2	0	1	270	0.00	29.905 
09:15	78.8	78.8	80.8	65	66.0	0	1	270	0.00	29.904 
09:20	79.4	79.4	81.5	64	66.1	0	2	270	0.00	29.904 
09:25	79.8	79.8	82.0	64	66.5	0	2	270	0.00	29.904 
09:30	80.3	80.3	82.5	63	66.5	0	1	270	0.00	29.903 
09:35	80.9	80.9	83.2	62	66.6	1	2	270	0.00	29.903 
09:40	81.2	81.2	83.5	61	66.4	0	1	270	0.00	29.903 
09:45	81.6	81.6	83.9	60	66.3	0	1	270	0.00	29.897 
09:50	82.2	82.2	84.3	58	65.9	1	3	270	0.00	29.897 
09:55	82.8	82.8	85.2	58	66.5	1	3	270	0.00	29.897 
10:00	83.4	83.4	86.1	58	67.0	1	2	270	0.00	29.889 
10:05	83.8	83.8	86.2	56	66.4	1	2	270	0.00	29.889 
10:10	84.3	84.3	86.5	54	65.8	1	2	270	0.00	29.889 
10:15	84.9	84.9	87.3	54	66.4	1	3	270	0.00	29.895 
10:20	85.5	85.5	88.0	53	66.4	2	4	270	0.00	29.895 
10:25	86.1	86.1	88.6	52	66.4	2	3	270	0.00	29.895 
10:30	86.5	86.5	88.9	51	66.2	1	3	270	0.00	29.895 
10:35	87.0	87.0	89.7	51	66.6	2	4	270	0.00	29.895 
10:40	87.6	87.6	90.7	51	67.2	1	3	270	0.00	29.895 
10:45	88.4	88.4	91.3	49	66.8	1	2	270	0.00	29.886 
10:50	89.0	89.0	91.6	47	66.1	1	4	270	0.00	29.886 
10:55	89.7	89.7	92.4	46	66.1	1	4	338	0.00	29.886 
11:00	89.9	89.9	92.3	45	65.7	1	4	315	0.00	29.882 
11:05	90.3	90.3	93.0	45	66.0	1	4	248	0.00	29.882 
11:10	90.5	90.5	93.3	45	66.2	1	4	270	0.00	29.882 
11:15	90.7	90.7	93.3	44	65.7	1	4	270	0.00	29.880 
11:20	91.2	91.2	93.7	43	65.5	0	2	270	0.00	29.880 
11:25	91.8	91.8	94.7	43	66.1	1	4	270	0.00	29.880 
11:30	91.8	91.8	94.7	43	66.1	1	3	270	0.00	29.876 
11:35	92.1	92.1	95.2	43	66.3	2	4	270	0.00	29.876 
11:40	92.1	92.1	95.2	43	66.3	1	4	270	0.00	29.876 
11:45	92.1	92.1	95.2	43	66.3	2	4	270	0.00	29.874 
11:50	92.3	92.3	95.6	43	66.5	1	4	292	0.00	29.874 
11:55	92.3	92.3	94.7	41	65.1	2	5	270	0.00	29.874 
12:00	92.5	92.5	95.0	41	65.3	1	4	270	0.00	29.866 
12:05	92.7	92.7	95.8	42	66.2	2	4	270	0.00	29.866 
12:10	92.9	92.9	95.7	41	65.7	2	4	270	0.00	29.866 
12:15	92.9	92.9	95.7	41	65.7	3	6	270	0.00	29.868 
12:20	93.2	93.2	96.2	41	65.9	2	7	270	0.00	29.868 
12:25	92.9	92.9	95.3	40	65.0	3	7	248	0.00	29.868 
12:30	92.9	92.9	95.3	40	65.0	2	5	270	0.00	29.867 
12:35	93.2	93.2	95.3	39	64.5	3	6	270	0.00	29.867 
12:40	93.6	93.6	96.0	39	64.9	2	3	270	0.00	29.867 
12:45	94.0	94.0	96.2	38	64.5	2	4	248	0.00	29.863 
12:50	94.3	94.3	96.7	38	64.7	1	4	270	0.00	29.863 
12:55	94.7	94.7	96.5	36	63.5	2	7	270	0.00	29.863 
13:00	94.3	94.3	96.3	37	64.0	2	7	270	0.00	29.855 
13:05	94.0	94.0	96.2	38	64.5	3	7	248	0.00	29.855 
13:10	94.3	94.3	96.7	38	64.7	1	4	270	0.00	29.855 
13:15	94.5	94.5	96.6	37	64.1	2	5	270	0.00	29.851 
13:20	94.7	94.7	96.9	37	64.3	2	5	270	0.00	29.851 
13:25	94.9	94.9	97.8	38	65.3	2	5	270	0.00	29.851 
13:30	94.9	94.9	95.9	34	62.1	2	5	270	0.00	29.851 
13:35	94.7	94.7	96.0	35	62.7	3	5	270	0.00	29.851 
13:40	94.9	94.9	97.3	37	64.5	2	6	270	0.00	29.851 
13:45	95.4	95.4	98.1	37	64.9	1	5	270	0.00	29.848 
13:50	95.9	95.9	98.0	35	63.8	2	6	270	0.00	29.848 
13:55	95.9	95.9	98.0	35	63.8	2	4	270	0.00	29.848 
14:00	96.3	96.3	98.7	35	64.1	1	4	90	0.00	29.845 
14:05	96.3	96.3	98.2	34	63.3	1	5	270	0.00	29.845 
14:10	96.8	96.8	98.5	33	62.9	1	6	292	0.00	29.845 
14:15	96.8	96.8	99.0	34	63.7	2	4	248	0.00	29.841 
14:20	97.1	97.1	99.5	34	64.0	1	2	270	0.00	29.841 
14:25	96.8	96.8	98.5	33	62.9	2	5	270	0.00	29.841 
14:30	96.6	96.6	98.2	33	62.7	2	5	270	0.00	29.838 
14:35	97.1	97.1	99.0	33	63.1	1	5	248	0.00	29.838 
14:40	97.1	97.1	98.5	32	62.3	2	5	270	0.00	29.838 
14:45	97.1	97.1	98.5	32	62.3	2	5	270	0.00	29.839 
14:50	97.3	97.3	98.3	31	61.5	1	4	22	0.00	29.839 
14:55	97.3	97.3	98.3	31	61.5	3	6	270	0.00	29.839 
15:00	97.3	97.3	98.3	31	61.5	1	5	270	0.00	29.836 
15:05	97.5	97.5	98.7	31	61.7	1	4	270	0.00	29.836 
15:10	98.0	98.0	98.5	29	60.3	2	4	270	0.00	29.836 
15:15	97.8	97.8	99.2	31	62.0	2	5	270	0.00	29.837 
15:20	98.0	98.0	98.0	28	59.3	2	5	270	0.00	29.837 
15:25	98.0	98.0	98.0	28	59.3	2	5	270	0.00	29.837 
15:30	97.8	97.8	98.2	29	60.1	2	7	270	0.00	29.832 
15:35	97.3	97.3	97.4	29	59.7	1	4	270	0.00	29.832 
15:40	96.8	96.8	96.2	28	58.3	2	6	248	0.00	29.832 
15:45	97.1	97.1	96.7	28	58.5	2	5	270	0.00	29.826 
15:50	97.3	97.3	97.9	30	60.6	2	5	270	0.00	29.826 
15:55	97.1	97.1	97.6	30	60.4	2	6	270	0.00	29.826 
16:00	96.8	96.8	97.5	31	61.1	2	4	270	0.00	29.823 
16:05	96.6	96.6	97.2	31	60.9	2	5	270	0.00	29.823 
16:10	96.6	96.6	97.7	32	61.8	1	4	270	0.00	29.823 
16:15	96.6	96.6	97.2	31	60.9	3	6	270	0.00	29.810 
16:20	96.3	96.3	97.2	32	61.6	2	4	270	0.00	29.810 
16:25	96.3	96.3	96.8	31	60.7	1	3	270	0.00	29.810 
16:30	96.3	96.3	96.3	30	59.8	1	4	315	0.00	29.805 
16:35	96.1	96.1	96.0	30	59.6	2	5	270	0.00	29.805 
16:40	95.9	95.9	96.1	31	60.3	1	5	248	0.00	29.805 
16:45	95.9	95.9	96.6	32	61.2	2	4	270	0.00	29.793 
16:50	95.6	95.6	95.7	31	60.1	1	4	270	0.00	29.793 
16:55	95.6	95.6	96.1	32	61.0	2	4	270	0.00	29.793 
17:00	95.6	95.6	95.7	31	60.1	1	4	292	0.00	29.792 
17:05	95.4	95.4	95.4	31	59.9	1	5	270	0.00	29.792 
17:10	95.4	95.4	95.4	31	59.9	2	4	270	0.00	29.792 
17:15	95.1	95.1	95.3	32	60.5	2	6	270	0.00	29.792 
17:20	95.1	95.1	95.3	32	60.5	2	5	270	0.00	29.792 
17:25	95.1	95.1	95.8	33	61.4	1	3	270	0.00	29.792 
17:30	95.4	95.4	95.4	31	59.9	1	3	270	0.00	29.789 
17:35	95.4	95.4	95.4	31	59.9	1	4	112	0.00	29.789 
17:40	95.4	95.4	95.4	31	59.9	1	4	270	0.00	29.789 
17:45	95.1	95.1	95.3	32	60.5	1	3	292	0.00	29.786 
17:50	95.1	95.1	95.8	33	61.4	1	4	292	0.00	29.786 
17:55	94.7	94.7	95.1	33	61.1	1	3	292	0.00	29.786 
18:00	94.5	94.5	95.7	35	62.6	0	2	292	0.00	29.784 
18:05	94.5	94.5	94.4	32	60.0	1	3	292	0.00	29.784 
18:10	94.3	94.3	94.9	34	61.6	1	5	270	0.00	29.784 
18:15	94.0	94.0	94.9	35	62.1	1	3	270	0.00	29.785 
18:20	93.6	93.6	94.7	36	62.6	1	3	248	0.00	29.785 
18:25	93.4	93.4	93.6	34	60.8	1	3	248	0.00	29.785 
18:30	93.4	93.4	93.6	34	60.8	1	2	248	0.00	29.785 
18:35	93.4	93.4	94.0	35	61.6	0	2	248	0.00	29.785 
18:40	93.2	93.2	93.7	35	61.4	1	4	248	0.00	29.785 
18:45	92.9	92.9	93.6	36	62.0	1	4	270	0.00	29.782 
18:50	92.5	92.5	93.4	37	62.4	1	5	270	0.00	29.782 
18:55	92.3	92.3	93.1	37	62.2	0	2	270	0.00	29.782 
19:00	92.1	92.1	93.1	38	62.8	1	4	270	0.00	29.788 
19:05	91.8	91.8	92.7	38	62.5	1	3	292	0.00	29.788 
19:10	91.8	91.8	93.1	39	63.3	1	4	270	0.00	29.788 
19:15	91.4	91.4	92.4	39	62.9	1	3	270	0.00	29.795 
19:20	91.2	91.2	92.1	39	62.7	1	2	292	0.00	29.795 
19:25	90.7	90.7	91.4	39	62.3	1	4	270	0.00	29.795 
19:30	90.5	90.5	91.1	39	62.1	0	2	270	0.00	29.797 
19:35	90.3	90.3	90.8	39	61.9	1	3	270	0.00	29.797 
19:40	90.1	90.1	90.5	39	61.8	1	2	270	0.00	29.797 
19:45	90.1	90.1	90.5	39	61.8	0	2	270	0.00	29.802 
19:50	89.9	89.9	90.2	39	61.6	0	2	270	0.00	29.802 
19:55	89.3	89.3	89.7	40	61.8	1	3	270	0.00	29.802 
20:00	87.4	87.4	87.9	43	62.1	0	3	270	0.00	29.818 
20:05	85.5	85.5	86.2	46	62.3	0	1	270	0.00	29.818 
20:10	84.3	84.3	84.9	47	61.8	1	3	270	0.00	29.818 
20:15	83.4	83.4	84.0	48	61.6	1	4	315	0.00	29.829 
20:20	82.4	82.4	83.2	50	61.9	3	6	315	0.00	29.829 
20:25	81.4	81.4	82.5	53	62.6	3	6	315	0.00	29.829 
20:30	80.7	80.7	81.9	54	62.5	2	7	315	0.00	29.833 
20:35	79.8	79.8	81.0	54	61.7	2	9	315	0.00	29.833 
20:40	79.2	79.2	80.5	55	61.6	2	4	270	0.00	29.833 
20:45	78.8	78.8	80.2	56	61.8	1	4	270	0.00	29.823 
20:50	78.5	78.5	80.0	57	62.0	1	5	270	0.00	29.823 
20:55	78.3	78.3	79.9	58	62.3	1	3	270	0.00	29.823 
21:00	78.1	78.1	79.7	58	62.1	0	2	270	0.00	29.827 
21:05	77.9	77.9	79.5	58	61.9	0	2	270	0.00	29.827 
21:10	77.7	77.7	79.3	58	61.7	1	4	270	0.00	29.827 
21:15	77.9	77.9	79.5	58	61.9	4	10	270	0.00	29.892 
21:20	77.9	77.9	79.5	58	61.9	4	11	315	0.00	29.892 
21:25	76.8	76.8	78.6	65	64.1	4	11	270	0.00	29.892 
21:30	75.1	75.1	76.6	72	65.4	1	3	270	0.00	29.863 
21:35	73.3	73.3	73.3	77	65.6	1	3	270	0.00	29.863 
21:40	72.5	72.5	72.5	80	66.0	0	1	270	0.00	29.863 
21:45	71.8	71.8	71.8	81	65.6	0	1	270	0.00	29.841 
21:50	71.6	71.6	71.6	83	66.2	0	0	---	0.00	29.841 
21:55	71.5	71.5	71.5	84	66.4	0	1	270	0.00	29.841 
22:00	71.5	71.5	71.5	85	66.7	0	2	270	0.00	29.851 
22:05	71.3	71.3	71.3	84	66.2	2	5	270	0.00	29.851 
22:10	71.3	71.3	71.3	83	65.9	1	4	292	0.00	29.851 
22:15	71.5	71.5	71.5	82	65.7	1	2	292	0.00	29.864 
22:20	71.6	71.6	71.6	81	65.4	3	7	270	0.00	29.864 
22:25	71.5	71.5	71.5	82	65.7	5	12	315	0.00	29.864 
22:30	71.5	71.5	71.5	82	65.7	2	6	315	0.00	29.879 
22:35	71.6	71.6	71.6	82	65.8	2	10	270	0.00	29.879 
22:40	71.8	71.8	71.8	81	65.6	2	4	270	0.00	29.879 
22:45	71.8	71.8	71.8	81	65.6	1	3	270	0.00	29.868 
22:50	72.0	72.0	72.0	81	65.8	1	4	292	0.00	29.868 
22:55	71.8	71.8	71.8	80	65.3	2	4	315	0.00	29.868 
23:00	71.5	71.5	71.5	81	65.4	2	5	292	0.01	29.857 
23:05	71.1	71.1	71.1	81	65.0	2	4	292	0.00	29.857 
23:10	70.6	70.6	70.6	82	64.8	2	5	292	0.00	29.857 
23:15	70.3	70.3	70.3	84	65.2	1	4	292	0.01	29.825 
23:20	69.9	69.9	69.9	84	64.8	1	4	292	0.00	29.825 
23:25	69.8	69.8	69.8	85	65.1	0	2	292	0.00	29.825 
23:30	69.6	69.6	69.6	85	64.9	0	1	315	0.00	29.795 
23:35	69.6	69.6	69.6	85	64.9	0	0	---	0.00	29.795 
23:40	69.6	69.6	69.6	85	64.9	0	0	---	0.00	29.795 
23:45	69.6	69.6	69.6	86	65.2	0	1	315	0.00	29.804 
23:50	69.6	69.6	69.6	85	64.9	0	0	---	0.00	29.804 
23:55	69.8	69.8	69.8	85	65.1	0	2	315	0.00	29.804 

CoCoRaHS
IN-AL-39
A2 Web Hosting
Creative Commons License
GoDaddy
search engine by freefind advanced

loaded 2018-11-16 23:22:50 • last modified 2010-11-18 10:43:29
Privacy PolicyDisclaimer
• wx.awcolley.com is powered by PmWiki v.2002016 •
• all content (unless otherwise noted) © 2018 A W Colley